Time;durP1;ratioP1;P1;durP2;ratioP2;P2;SDS_P1;SDS_P2;PMS_P1;PMS_P2;Temp;Humidity;BMP_temperature;BMP_pressure;BME280_temperature;BME280_humidity;BME280_pressure;Samples;Min_cycle;Max_cycle;Signal;HPM_P1;HPM_P2
2021/03/25 00:01:21;;;;;;;19.40;9.33;;;5.50;78.00;;;;;;4945210;28;20225;-69
2021/03/25 00:03:50;;;;;;;14.23;7.57;;;5.60;78.40;;;;;;4966574;28;20225;-69
2021/03/25 00:06:16;;;;;;;11.40;7.40;;;5.60;78.60;;;;;;4945172;28;20200;-70
2021/03/25 00:08:41;;;;;;;14.90;7.27;;;5.60;78.10;;;;;;4964476;28;20221;-69
2021/03/25 00:11:08;;;;;;;13.97;7.90;;;5.50;77.50;;;;;;4962428;28;20220;-70
2021/03/25 00:13:33;;;;;;;12.93;8.03;;;5.70;78.30;;;;;;4963045;28;20228;-69
2021/03/25 00:15:59;;;;;;;13.47;7.83;;;5.50;78.60;;;;;;4966196;28;20283;-69
2021/03/25 00:18:24;;;;;;;13.83;8.20;;;5.50;78.70;;;;;;4966508;28;20197;-70
2021/03/25 00:20:50;;;;;;;15.63;8.10;;;5.50;78.50;;;;;;4966762;28;20672;-70
2021/03/25 00:23:17;;;;;;;12.77;7.47;;;5.50;78.30;;;;;;4956686;28;20233;-69
2021/03/25 00:25:43;;;;;;;16.27;9.97;;;5.50;78.40;;;;;;4944066;28;20232;-69
2021/03/25 00:28:12;;;;;;;12.93;8.20;;;5.40;78.20;;;;;;4949609;28;20697;-69
2021/03/25 00:30:39;;;;;;;15.13;6.83;;;5.40;77.90;;;;;;4965410;28;20256;-71
2021/03/25 00:33:07;;;;;;;12.97;7.43;;;5.30;78.70;;;;;;4950299;28;20621;-69
2021/03/25 00:35:32;;;;;;;12.50;7.40;;;5.30;79.00;;;;;;4948950;28;20685;-69
2021/03/25 00:37:58;;;;;;;15.77;8.57;;;5.30;78.80;;;;;;4964425;28;20255;-69
2021/03/25 00:40:24;;;;;;;14.17;9.07;;;5.30;79.30;;;;;;4956816;28;20240;-69
2021/03/25 00:42:50;;;;;;;16.57;8.67;;;5.30;78.80;;;;;;4948820;28;20235;-69
2021/03/25 00:45:22;;;;;;;12.83;7.17;;;5.20;78.90;;;;;;4968284;28;20629;-69
2021/03/25 00:47:47;;;;;;;13.50;8.13;;;5.10;78.60;;;;;;4962672;28;20213;-69
2021/03/25 00:50:20;;;;;;;13.87;7.90;;;5.10;78.60;;;;;;4956456;28;20684;-70
2021/03/25 00:52:46;;;;;;;13.00;8.33;;;5.00;79.20;;;;;;4949651;28;20213;-69
2021/03/25 00:55:12;;;;;;;15.10;8.57;;;5.00;79.80;;;;;;4966417;28;20241;-69
2021/03/25 00:57:38;;;;;;;14.13;7.70;;;4.90;80.10;;;;;;4967755;28;20590;-69
2021/03/25 01:00:05;;;;;;;13.03;6.87;;;5.00;80.60;;;;;;4963917;28;20193;-70
2021/03/25 01:02:31;;;;;;;12.30;7.57;;;4.90;80.60;;;;;;4961480;28;20268;-70
2021/03/25 01:04:56;;;;;;;14.17;8.20;;;4.90;80.60;;;;;;4966773;28;20315;-69
2021/03/25 01:07:27;;;;;;;15.53;8.20;;;4.90;80.70;;;;;;4944961;28;20224;-69
2021/03/25 01:09:53;;;;;;;14.50;8.17;;;4.90;80.60;;;;;;4962982;28;20311;-69
2021/03/25 01:12:19;;;;;;;12.57;7.83;;;4.90;80.60;;;;;;4963586;28;20268;-70
2021/03/25 01:14:44;;;;;;;11.43;7.77;;;4.90;80.90;;;;;;4949480;28;20197;-69
2021/03/25 01:17:10;;;;;;;10.40;7.20;;;4.70;80.80;;;;;;4947259;28;20259;-69
2021/03/25 01:19:36;;;;;;;13.33;6.53;;;4.70;81.00;;;;;;4966809;28;20417;-69
2021/03/25 01:22:02;;;;;;;13.03;7.60;;;4.60;81.40;;;;;;4955301;28;20271;-69
2021/03/25 01:24:27;;;;;;;12.63;7.97;;;4.60;82.50;;;;;;4945238;28;20216;-69
2021/03/25 01:26:54;;;;;;;13.97;7.27;;;4.60;82.60;;;;;;4966203;28;20186;-69
2021/03/25 01:29:20;;;;;;;19.80;8.20;;;4.60;83.50;;;;;;4967256;28;20268;-69
2021/03/25 01:31:46;;;;;;;10.37;8.03;;;4.60;83.30;;;;;;4950659;28;20225;-69
2021/03/25 01:34:15;;;;;;;15.07;7.73;;;4.50;83.90;;;;;;4965721;28;20271;-68
2021/03/25 01:36:41;;;;;;;12.13;7.23;;;4.50;84.00;;;;;;4951000;28;20267;-69
2021/03/25 01:39:06;;;;;;;9.27;5.53;;;4.40;84.50;;;;;;4946125;28;20637;-69
2021/03/25 01:41:34;;;;;;;11.10;7.00;;;4.40;84.60;;;;;;4960108;28;20225;-69
2021/03/25 01:44:01;;;;;;;15.97;8.73;;;4.40;84.70;;;;;;4963756;28;20217;-69
2021/03/25 01:46:32;;;;;;;10.53;6.37;;;4.40;84.80;;;;;;4966574;28;20312;-69
2021/03/25 01:49:04;;;;;;;15.07;7.07;;;4.40;84.60;;;;;;4959585;28;20225;-70
2021/03/25 01:51:41;;;;;;;13.13;7.87;;;4.40;84.10;;;;;;4946910;28;20241;-69
2021/03/25 01:54:15;;;;;;;11.73;6.73;;;4.40;83.60;;;;;;4968885;28;20896;-69
2021/03/25 01:57:02;;;;;;;13.73;7.13;;;4.30;83.10;;;;;;4969859;28;20232;-69
2021/03/25 02:00:06;;;;;;;12.87;7.87;;;4.30;83.70;;;;;;4967029;28;20683;-69
2021/03/25 02:02:56;;;;;;;9.50;6.23;;;4.30;83.90;;;;;;4941688;28;20216;-69
2021/03/25 02:05:28;;;;;;;15.80;7.47;;;4.20;83.40;;;;;;4967342;28;20228;-69
2021/03/25 02:08:04;;;;;;;12.13;6.70;;;4.20;82.90;;;;;;4970904;28;20236;-69
2021/03/25 02:10:40;;;;;;;14.57;7.70;;;4.20;83.40;;;;;;4970521;28;20263;-68
2021/03/25 02:13:23;;;;;;;10.03;6.63;;;4.10;83.30;;;;;;4950955;28;20824;-73
2021/03/25 02:16:02;;;;;;;15.50;8.80;;;4.00;83.80;;;;;;4964516;28;20235;-70
2021/03/25 02:18:44;;;;;;;9.17;6.30;;;4.00;84.20;;;;;;4966225;28;20189;-68
2021/03/25 02:21:38;;;;;;;13.73;8.43;;;4.00;84.30;;;;;;4970109;28;20251;-69
2021/03/25 02:24:09;;;;;;;11.20;6.80;;;3.90;84.20;;;;;;4966476;28;20653;-69
2021/03/25 02:27:01;;;;;;;13.73;7.53;;;3.90;84.40;;;;;;4965960;28;20623;-69
2021/03/25 02:29:55;;;;;;;11.30;7.07;;;3.90;84.30;;;;;;4963927;28;20265;-69
2021/03/25 02:32:29;;;;;;;11.87;7.10;;;3.90;84.30;;;;;;4967003;28;20312;-69
2021/03/25 02:35:00;;;;;;;13.50;7.37;;;3.80;84.10;;;;;;4969262;28;20287;-69
2021/03/25 02:37:30;;;;;;;13.13;7.70;;;3.80;84.10;;;;;;4951729;28;20729;-68
2021/03/25 02:40:11;;;;;;;11.40;7.13;;;3.70;84.40;;;;;;4966793;28;20309;-69
2021/03/25 02:42:49;;;;;;;10.37;5.97;;;3.70;85.10;;;;;;4970127;28;20251;-68
2021/03/25 02:45:18;;;;;;;9.13;6.43;;;3.70;84.60;;;;;;4952487;28;20244;-68
2021/03/25 02:47:47;;;;;;;11.00;6.83;;;3.70;84.00;;;;;;4944019;28;20667;-69
2021/03/25 02:50:44;;;;;;;11.57;6.40;;;3.70;84.30;;;;;;4947869;28;20225;-69
2021/03/25 02:53:22;;;;;;;12.60;7.40;;;3.50;85.30;;;;;;4948537;28;20367;-69
2021/03/25 02:55:51;;;;;;;11.37;7.43;;;3.50;85.80;;;;;;4966390;28;20919;-68
2021/03/25 02:58:21;;;;;;;12.50;6.67;;;3.40;86.40;;;;;;4950410;28;24394;-69
2021/03/25 03:00:55;;;;;;;11.60;8.30;;;3.40;87.20;;;;;;4963598;28;20645;-68
2021/03/25 03:03:27;;;;;;;10.83;6.63;;;3.40;87.30;;;;;;4969697;28;20205;-68
2021/03/25 03:05:53;;;;;;;15.03;6.87;;;3.40;88.10;;;;;;4963558;28;20185;-69
2021/03/25 03:08:41;;;;;;;11.17;6.77;;;3.30;88.20;;;;;;4967562;28;20236;-69
2021/03/25 03:11:21;;;;;;;11.43;7.37;;;3.30;89.00;;;;;;4968575;28;20225;-69
2021/03/25 03:13:54;;;;;;;11.17;7.37;;;3.30;89.20;;;;;;4954954;28;20225;-68
2021/03/25 03:16:26;;;;;;;13.37;6.93;;;3.30;89.10;;;;;;4965311;28;20232;-68
2021/03/25 03:19:05;;;;;;;10.33;6.70;;;3.20;90.10;;;;;;4967477;28;20305;-68
2021/03/25 03:21:38;;;;;;;10.20;6.47;;;3.30;90.70;;;;;;4963821;28;20189;-69
2021/03/25 03:24:06;;;;;;;16.47;8.03;;;3.30;89.80;;;;;;4960582;28;20231;-68
2021/03/25 03:26:38;;;;;;;13.97;7.23;;;3.30;90.00;;;;;;4949709;28;20352;-69
2021/03/25 03:29:06;;;;;;;13.07;7.57;;;3.40;90.40;;;;;;4966716;28;20228;-69
2021/03/25 03:31:44;;;;;;;9.17;5.87;;;3.10;90.30;;;;;;4965280;28;20622;-68
2021/03/25 03:34:33;;;;;;;11.07;6.57;;;3.20;90.50;;;;;;4949652;28;20235;-69
2021/03/25 03:37:05;;;;;;;12.47;7.37;;;3.20;90.00;;;;;;4964867;28;20243;-69
2021/03/25 03:39:32;;;;;;;8.83;6.03;;;3.10;89.70;;;;;;4965788;28;20317;-69
2021/03/25 03:42:07;;;;;;;10.50;7.00;;;3.10;90.00;;;;;;4967826;28;20204;-70
2021/03/25 03:44:43;;;;;;;11.97;7.00;;;3.10;90.00;;;;;;4944738;28;20217;-69
2021/03/25 03:47:11;;;;;;;9.27;6.13;;;3.00;89.90;;;;;;4960438;28;20228;-69
2021/03/25 03:49:42;;;;;;;7.80;6.23;;;3.10;90.00;;;;;;4966880;28;20229;-69
2021/03/25 03:52:19;;;;;;;9.03;5.27;;;3.10;90.00;;;;;;4963380;28;20219;-69
2021/03/25 03:54:49;;;;;;;15.33;7.37;;;3.00;89.80;;;;;;4942384;28;20232;-69
2021/03/25 03:57:52;;;;;;;14.00;6.53;;;3.00;90.10;;;;;;4968589;28;20255;-69
2021/03/25 04:00:29;;;;;;;8.97;6.13;;;3.00;90.20;;;;;;4953260;28;20581;-69
2021/03/25 04:03:03;;;;;;;9.70;6.17;;;3.00;90.20;;;;;;4967468;28;20201;-69
2021/03/25 04:05:33;;;;;;;8.00;5.87;;;3.00;90.40;;;;;;4962887;28;20687;-69
2021/03/25 04:08:07;;;;;;;12.03;6.97;;;3.00;90.10;;;;;;4964829;28;20256;-69
2021/03/25 04:10:48;;;;;;;11.80;6.37;;;3.00;90.20;;;;;;4954107;28;20279;-69
2021/03/25 04:13:23;;;;;;;9.47;6.47;;;3.00;90.00;;;;;;4965805;28;20283;-69
2021/03/25 04:15:49;;;;;;;10.30;7.30;;;2.90;90.20;;;;;;4967841;28;20592;-69
2021/03/25 04:18:33;;;;;;;8.27;5.90;;;2.90;90.00;;;;;;4967080;28;20331;-69
2021/03/25 04:21:05;;;;;;;9.90;5.80;;;2.90;89.70;;;;;;4963333;28;20225;-69
2021/03/25 04:23:33;;;;;;;11.30;6.40;;;2.90;89.40;;;;;;4948105;28;20295;-68
2021/03/25 04:26:16;;;;;;;9.13;6.60;;;2.90;89.50;;;;;;4945418;28;20255;-69
2021/03/25 04:28:55;;;;;;;9.57;5.60;;;2.90;89.30;;;;;;4947994;28;20303;-69
2021/03/25 04:31:21;;;;;;;10.17;6.27;;;2.90;89.10;;;;;;4966289;28;20232;-68
2021/03/25 04:33:46;;;;;;;8.50;5.90;;;2.90;89.40;;;;;;4947440;28;20259;-70
2021/03/25 04:36:21;;;;;;;12.57;6.33;;;2.90;89.50;;;;;;4964120;28;20253;-70
2021/03/25 04:38:48;;;;;;;9.93;5.90;;;2.90;89.30;;;;;;4963928;28;20706;-70
2021/03/25 04:41:15;;;;;;;8.57;6.40;;;2.80;89.00;;;;;;4945181;28;20719;-69
2021/03/25 04:43:42;;;;;;;10.00;5.93;;;2.80;89.20;;;;;;4964862;28;20225;-69
2021/03/25 04:46:31;;;;;;;8.17;5.17;;;2.90;88.90;;;;;;4967910;28;20221;-69
2021/03/25 04:49:02;;;;;;;10.47;6.07;;;2.80;89.10;;;;;;4962155;28;20303;-69
2021/03/25 04:51:28;;;;;;;8.70;5.57;;;2.70;89.00;;;;;;4951902;28;20213;-69
2021/03/25 04:54:09;;;;;;;12.83;6.50;;;2.70;89.10;;;;;;4966935;28;20235;-69
2021/03/25 04:56:35;;;;;;;9.13;6.30;;;2.60;88.80;;;;;;4964698;28;20236;-69
2021/03/25 04:59:02;;;;;;;9.50;5.90;;;2.70;89.30;;;;;;4967974;28;20337;-69
2021/03/25 05:01:32;;;;;;;9.37;5.60;;;2.60;89.20;;;;;;4963561;28;20242;-69
2021/03/25 05:04:05;;;;;;;12.03;6.43;;;2.60;89.70;;;;;;4946811;28;20224;-69
2021/03/25 05:06:45;;;;;;;7.13;5.00;;;2.60;89.60;;;;;;4964563;28;20208;-69
2021/03/25 05:09:19;;;;;;;11.40;5.90;;;1.40;89.50;;;;;;4964392;28;20708;-69
2021/03/25 05:11:45;;;;;;;9.83;6.53;;;2.60;90.40;;;;;;4961327;28;20213;-70
2021/03/25 05:14:29;;;;;;;12.23;5.90;;;2.50;89.80;;;;;;4963586;28;20235;-69
2021/03/25 05:17:12;;;;;;;8.87;6.37;;;2.50;90.40;;;;;;4956138;28;20275;-69
2021/03/25 05:19:47;;;;;;;10.20;6.70;;;2.50;90.40;;;;;;4953555;28;20232;-70
2021/03/25 05:22:24;;;;;;;13.67;6.83;;;2.50;90.40;;;;;;4943806;28;20230;-69
2021/03/25 05:25:07;;;;;;;9.40;6.37;;;2.50;90.40;;;;;;4967687;28;20225;-69
2021/03/25 05:27:47;;;;;;;9.37;6.00;;;2.50;90.30;;;;;;4967311;28;20300;-69
2021/03/25 05:30:20;;;;;;;8.13;5.47;;;2.50;90.30;;;;;;4967370;28;20196;-69
2021/03/25 05:32:50;;;;;;;10.50;5.83;;;2.50;90.40;;;;;;4969651;28;20687;-70
2021/03/25 05:35:19;;;;;;;9.40;5.87;;;2.50;90.40;;;;;;4965352;28;20229;-69
2021/03/25 05:37:47;;;;;;;10.90;6.90;;;2.60;90.40;;;;;;4969485;28;20237;-69
2021/03/25 05:40:38;;;;;;;8.73;5.97;;;2.60;90.60;;;;;;4969885;28;20232;-69
2021/03/25 05:43:37;;;;;;;8.93;6.23;;;2.50;90.30;;;;;;4970540;28;20312;-69
2021/03/25 05:46:22;;;;;;;8.13;6.33;;;2.50;90.40;;;;;;4965458;28;20252;-69
2021/03/25 05:49:11;;;;;;;8.90;5.40;;;2.50;90.60;;;;;;4964860;28;20315;-69
2021/03/25 05:52:20;;;;;;;8.40;6.17;;;2.60;90.90;;;;;;4950590;28;20320;-69
2021/03/25 05:55:00;;;;;;;11.80;5.97;;;2.70;90.50;;;;;;4924180;28;20231;-69
2021/03/25 05:57:51;;;;;;;9.43;6.40;;;2.70;90.80;;;;;;4951930;28;20708;-69
2021/03/25 06:00:48;;;;;;;9.10;5.73;;;2.70;90.80;;;;;;4956564;28;20201;-69
2021/03/25 06:03:19;;;;;;;8.20;6.03;;;2.70;90.80;;;;;;4897402;28;20315;-70
2021/03/25 06:05:49;;;;;;;8.00;6.57;;;2.80;90.90;;;;;;4969686;28;20255;-68
2021/03/25 06:08:45;;;;;;;10.37;5.77;;;2.80;91.00;;;;;;4968274;28;20224;-68
2021/03/25 06:11:14;;;;;;;14.00;5.50;;;3.00;90.60;;;;;;4955552;28;20229;-68
2021/03/25 06:13:48;;;;;;;8.53;6.67;;;3.00;90.30;;;;;;4955559;28;20221;-68
2021/03/25 06:16:22;;;;;;;9.10;6.87;;;3.00;90.40;;;;;;4967376;28;20232;-69
2021/03/25 06:19:02;;;;;;;9.00;5.47;;;3.00;90.40;;;;;;4970817;28;20312;-69
2021/03/25 06:22:02;;;;;;;10.93;6.60;;;3.10;90.60;;;;;;4964049;28;20518;-71
2021/03/25 06:24:33;;;;;;;12.57;6.60;;;3.10;90.60;;;;;;4970310;28;20231;-67
2021/03/25 06:27:43;;;;;;;8.63;5.87;;;3.20;90.60;;;;;;4968810;28;20857;-66
2021/03/25 06:30:19;;;;;;;7.73;5.23;;;3.30;90.70;;;;;;4944308;28;20224;-67
2021/03/25 06:32:48;;;;;;;8.67;6.37;;;3.40;90.70;;;;;;4970136;28;20220;-67
2021/03/25 06:35:19;;;;;;;9.07;6.73;;;3.50;90.80;;;;;;4970047;28;20260;-67
2021/03/25 06:38:01;;;;;;;11.60;6.50;;;3.60;90.80;;;;;;4969753;28;20715;-67
2021/03/25 06:40:47;;;;;;;8.70;6.40;;;3.70;90.80;;;;;;4968649;28;20244;-65
2021/03/25 06:43:23;;;;;;;8.40;6.17;;;3.80;90.50;;;;;;4969057;28;20227;-64
2021/03/25 06:45:57;;;;;;;11.80;6.30;;;3.90;90.50;;;;;;4969589;28;20228;-67
2021/03/25 06:48:56;;;;;;;7.73;5.33;;;4.10;90.60;;;;;;4970299;28;20705;-66
2021/03/25 06:51:24;;;;;;;11.50;7.03;;;4.20;90.50;;;;;;4917244;28;20216;-65
2021/03/25 06:54:04;;;;;;;13.90;7.67;;;4.30;90.00;;;;;;4966410;28;20217;-65
2021/03/25 06:56:34;;;;;;;10.73;6.87;;;4.50;88.80;;;;;;4962593;28;20288;-65
2021/03/25 06:59:05;;;;;;;11.30;7.23;;;4.70;87.90;;;;;;4954224;28;20680;-65
2021/03/25 07:01:33;;;;;;;12.40;6.83;;;4.70;85.70;;;;;;4939919;28;20740;-65
2021/03/25 07:04:20;;;;;;;8.70;6.70;;;4.90;85.80;;;;;;4957972;28;20252;-66
2021/03/25 07:06:46;;;;;;;10.27;6.73;;;5.10;84.00;;;;;;4964033;28;20316;-65
2021/03/25 07:09:13;;;;;;;9.77;6.30;;;5.20;83.10;;;;;;4967514;28;20304;-66
2021/03/25 07:11:39;;;;;;;11.80;7.77;;;5.40;82.40;;;;;;4958667;28;20217;-66
2021/03/25 07:14:14;;;;;;;8.93;7.23;;;5.40;82.00;;;;;;4956127;28;20232;-66
2021/03/25 07:16:43;;;;;;;9.57;6.70;;;5.50;80.10;;;;;;4966878;28;20319;-66
2021/03/25 07:19:11;;;;;;;10.57;7.17;;;5.60;79.80;;;;;;4966301;28;20315;-66
2021/03/25 07:21:48;;;;;;;11.00;7.30;;;5.70;80.40;;;;;;4966577;28;20294;-66
2021/03/25 07:24:23;;;;;;;10.57;6.87;;;5.80;81.00;;;;;;4949195;28;20190;-66
2021/03/25 07:26:59;;;;;;;11.30;7.03;;;6.00;80.40;;;;;;4961233;28;20672;-66
2021/03/25 07:29:35;;;;;;;10.43;6.43;;;6.20;78.10;;;;;;4965827;28;20229;-69
2021/03/25 07:32:03;;;;;;;11.07;7.53;;;6.30;76.70;;;;;;4961213;28;20359;-70
2021/03/25 07:34:36;;;;;;;9.63;6.87;;;6.40;76.70;;;;;;4947383;28;20225;-70
2021/03/25 07:37:04;;;;;;;12.50;7.30;;;6.50;76.90;;;;;;4967983;28;20265;-70
2021/03/25 07:39:40;;;;;;;10.57;6.87;;;6.60;76.40;;;;;;4948110;28;20185;-70
2021/03/25 07:42:07;;;;;;;13.37;6.77;;;6.80;74.50;;;;;;4965062;28;20209;-69
2021/03/25 07:44:35;;;;;;;10.63;7.33;;;6.80;73.80;;;;;;4964606;28;20320;-72
2021/03/25 07:47:06;;;;;;;13.77;7.17;;;6.90;74.50;;;;;;4950415;28;20487;-70
2021/03/25 07:49:37;;;;;;;14.00;7.17;;;7.00;74.20;;;;;;4966725;28;20240;-69
2021/03/25 07:52:27;;;;;;;9.20;7.03;;;7.10;73.70;;;;;;4953860;28;20231;-64
2021/03/25 07:54:52;;;;;;;11.93;7.23;;;7.40;70.20;;;;;;4962189;28;20228;-64
2021/03/25 07:57:20;;;;;;;10.27;6.73;;;7.40;70.80;;;;;;4958178;28;20233;-65
2021/03/25 07:59:51;;;;;;;11.03;6.87;;;7.60;71.00;;;;;;4965858;28;20204;-64
2021/03/25 08:02:33;;;;;;;13.27;7.33;;;7.80;68.40;;;;;;4944470;28;20239;-66
2021/03/25 08:05:13;;;;;;;12.13;7.63;;;7.90;65.80;;;;;;4947835;28;20229;-65
2021/03/25 08:07:40;;;;;;;12.30;8.47;;;8.10;63.70;;;;;;4960511;28;20271;-65
2021/03/25 08:10:07;;;;;;;11.97;8.27;;;8.10;64.30;;;;;;4939895;28;20227;-65
2021/03/25 08:12:36;;;;;;;9.80;6.07;;;8.10;64.80;;;;;;4964269;28;20186;-66
2021/03/25 08:15:16;;;;;;;10.93;6.90;;;8.20;62.90;;;;;;4958043;28;20296;-65
2021/03/25 08:17:48;;;;;;;11.27;7.67;;;8.20;62.90;;;;;;4959562;28;20238;-65
2021/03/25 08:20:20;;;;;;;9.90;6.83;;;8.00;63.80;;;;;;4963525;28;20709;-65
2021/03/25 08:23:13;;;;;;;10.13;7.37;;;8.30;63.90;;;;;;4963649;28;20221;-65
2021/03/25 08:26:19;;;;;;;12.80;7.57;;;8.30;63.00;;;;;;4958764;28;20233;-65
2021/03/25 08:28:55;;;;;;;10.13;7.00;;;8.40;62.30;;;;;;4957150;28;20240;-65
2021/03/25 08:31:29;;;;;;;8.20;5.50;;;8.50;62.60;;;;;;4943886;28;20302;-65
2021/03/25 08:34:26;;;;;;;10.03;7.13;;;8.60;61.50;;;;;;4964713;28;20247;-65
2021/03/25 08:37:26;;;;;;;8.63;6.23;;;8.70;62.80;;;;;;4938973;28;20327;-65
2021/03/25 08:40:06;;;;;;;11.53;7.20;;;8.80;62.40;;;;;;4964516;28;20229;-65
2021/03/25 08:42:47;;;;;;;12.20;6.10;;;9.10;61.00;;;;;;4965876;28;20220;-65
2021/03/25 08:45:13;;;;;;;13.47;6.63;;;9.30;60.90;;;;;;4964420;28;20253;-65
2021/03/25 08:47:48;;;;;;;14.37;7.33;;;9.40;58.70;;;;;;4960247;28;20330;-65
2021/03/25 08:50:42;;;;;;;8.80;5.23;;;9.40;58.80;;;;;;4964557;28;20236;-65
2021/03/25 08:53:43;;;;;;;9.47;5.83;;;9.50;58.30;;;;;;4967374;28;20275;-65
2021/03/25 08:57:03;;;;;;;11.43;6.60;;;9.40;57.70;;;;;;4961423;28;20255;-67
2021/03/25 08:59:37;;;;;;;8.73;5.40;;;9.40;58.50;;;;;;4878799;29;20735;-65
2021/03/25 09:02:15;;;;;;;8.20;5.83;;;9.50;58.90;;;;;;4950377;28;20312;-65
2021/03/25 09:04:55;;;;;;;8.10;5.90;;;9.70;58.10;;;;;;4955227;28;20243;-65
2021/03/25 09:07:23;;;;;;;7.43;5.40;;;10.00;56.90;;;;;;4968276;28;20568;-65
2021/03/25 09:10:10;;;;;;;8.57;5.47;;;9.90;56.60;;;;;;4947353;28;20228;-66
2021/03/25 09:12:36;;;;;;;8.70;5.63;;;9.90;56.90;;;;;;4965424;28;20189;-65
2021/03/25 09:15:07;;;;;;;11.83;6.60;;;10.00;55.50;;;;;;4968311;28;20525;-66
2021/03/25 09:17:42;;;;;;;8.17;5.80;;;10.00;55.80;;;;;;4963482;28;20583;-65
2021/03/25 09:20:11;;;;;;;7.90;5.37;;;10.00;56.10;;;;;;4968486;28;20224;-65
2021/03/25 09:22:42;;;;;;;8.00;6.50;;;10.10;55.00;;;;;;4973223;28;20227;-65
2021/03/25 09:25:17;;;;;;;8.97;6.80;;;10.10;55.30;;;;;;4953757;28;20308;-64
2021/03/25 09:28:07;;;;;;;10.90;7.07;;;10.10;55.50;;;;;;4970113;28;20303;-64
2021/03/25 09:30:41;;;;;;;6.37;4.87;;;10.10;55.50;;;;;;4972219;28;20200;-65
2021/03/25 09:33:44;;;;;;;9.30;6.33;;;10.20;55.10;;;;;;4967293;28;20191;-65
2021/03/25 09:36:32;;;;;;;10.10;6.80;;;10.30;55.20;;;;;;4964307;28;20219;-65
2021/03/25 09:38:58;;;;;;;8.30;5.20;;;10.50;55.40;;;;;;4952267;28;20235;-65
2021/03/25 09:41:29;;;;;;;13.10;7.33;;;10.60;54.80;;;;;;4963968;28;20229;-65
2021/03/25 09:44:17;;;;;;;10.50;6.20;;;10.50;55.90;;;;;;4969260;28;20228;-65
2021/03/25 09:46:49;;;;;;;10.23;6.87;;;10.50;54.60;;;;;;4970225;28;20329;-65
2021/03/25 09:49:39;;;;;;;9.47;6.53;;;10.60;54.40;;;;;;4969258;28;20244;-65
2021/03/25 09:52:08;;;;;;;10.47;6.47;;;10.50;54.90;;;;;;4971047;28;20717;-66
2021/03/25 09:54:47;;;;;;;8.53;6.03;;;10.80;55.10;;;;;;4971193;28;20509;-65
2021/03/25 09:57:31;;;;;;;9.03;6.47;;;10.80;55.70;;;;;;4965046;28;20628;-65
2021/03/25 10:00:21;;;;;;;9.43;5.60;;;11.10;52.50;;;;;;4963512;28;20215;-65
2021/03/25 10:02:53;;;;;;;9.53;7.33;;;11.00;52.70;;;;;;4970285;28;20225;-65
2021/03/25 10:05:25;;;;;;;8.90;6.47;;;11.10;53.20;;;;;;4945105;28;20231;-65
2021/03/25 10:07:53;;;;;;;8.97;5.83;;;11.20;53.00;;;;;;4971739;28;20287;-65
2021/03/25 10:10:48;;;;;;;10.63;6.77;;;11.20;51.80;;;;;;4968684;28;20232;-64
2021/03/25 10:13:18;;;;;;;9.67;6.03;;;11.30;53.00;;;;;;4967397;28;20223;-65
2021/03/25 10:16:12;;;;;;;8.73;6.00;;;11.30;51.80;;;;;;4951238;28;20653;-64
2021/03/25 10:18:38;;;;;;;10.93;6.73;;;11.40;52.50;;;;;;4964670;28;20243;-65
2021/03/25 10:21:08;;;;;;;9.30;6.40;;;11.60;52.60;;;;;;4967582;28;20185;-65
2021/03/25 10:23:51;;;;;;;7.23;5.20;;;11.70;52.00;;;;;;4968226;28;20339;-65
2021/03/25 10:26:26;;;;;;;7.40;6.27;;;12.00;49.90;;;;;;4968027;28;20320;-65
2021/03/25 10:28:57;;;;;;;12.70;6.97;;;11.90;50.30;;;;;;4948800;28;20323;-65
2021/03/25 10:31:38;;;;;;;7.73;4.73;;;12.00;50.70;;;;;;4969874;28;20492;-65
2021/03/25 10:34:25;;;;;;;10.10;5.90;;;12.20;49.70;;;;;;4954924;28;20332;-65
2021/03/25 10:37:03;;;;;;;4.70;3.47;;;12.20;50.00;;;;;;4970447;28;20571;-65
2021/03/25 10:39:36;;;;;;;7.23;4.77;;;12.20;49.70;;;;;;4958248;28;20184;-64
2021/03/25 10:42:22;;;;;;;10.17;6.30;;;12.10;49.90;;;;;;4971456;28;20189;-65
2021/03/25 10:44:48;;;;;;;6.60;5.00;;;12.30;50.10;;;;;;4972086;28;20267;-65
2021/03/25 10:47:19;;;;;;;11.27;6.43;;;12.40;49.10;;;;;;4969510;28;20241;-65
2021/03/25 10:49:57;;;;;;;6.47;5.37;;;12.60;48.60;;;;;;4946939;28;20263;-65
2021/03/25 10:52:24;;;;;;;5.97;3.70;;;12.90;48.10;;;;;;4965812;28;20259;-64
2021/03/25 10:54:56;;;;;;;7.83;5.30;;;13.00;47.00;;;;;;4971102;28;20287;-66
2021/03/25 10:57:28;;;;;;;8.17;5.33;;;13.10;47.40;;;;;;4949763;28;20627;-66
2021/03/25 11:00:01;;;;;;;8.17;6.43;;;13.10;47.20;;;;;;4948718;28;20204;-66
2021/03/25 11:02:37;;;;;;;8.17;5.17;;;13.30;46.10;;;;;;4969361;28;20260;-66
2021/03/25 11:05:27;;;;;;;12.40;6.20;;;13.50;46.50;;;;;;4964824;28;20238;-66
2021/03/25 11:07:57;;;;;;;5.13;4.63;;;13.60;45.90;;;;;;4942115;28;20344;-66
2021/03/25 11:10:38;;;;;;;10.97;6.67;;;13.50;45.30;;;;;;4969172;28;22807;-66
2021/03/25 11:13:15;;;;;;;6.40;4.53;;;13.50;46.40;;;;;;4967109;28;20237;-66
2021/03/25 11:15:47;;;;;;;13.83;6.13;;;13.30;46.20;;;;;;4968548;28;20285;-66
2021/03/25 11:18:37;;;;;;;8.60;5.70;;;13.10;47.70;;;;;;4968638;28;20263;-66
2021/03/25 11:21:06;;;;;;;12.77;7.43;;;13.00;48.20;;;;;;4953159;28;20228;-66
2021/03/25 11:23:32;;;;;;;6.77;5.53;;;13.00;48.90;;;;;;4967199;28;20235;-66
2021/03/25 11:26:02;;;;;;;10.77;7.73;;;13.30;48.70;;;;;;4970205;28;20292;-66
2021/03/25 11:28:46;;;;;;;8.37;4.80;;;13.40;48.30;;;;;;4970193;28;20224;-66
2021/03/25 11:31:23;;;;;;;10.63;5.97;;;13.50;47.70;;;;;;4961346;28;20251;-65
2021/03/25 11:33:50;;;;;;;8.80;5.40;;;13.50;47.90;;;;;;4961108;28;20668;-66
2021/03/25 11:36:44;;;;;;;8.60;5.10;;;13.60;48.00;;;;;;4963304;28;20211;-66
2021/03/25 11:39:28;;;;;;;11.27;6.90;;;13.50;48.40;;;;;;4961272;28;20228;-66
2021/03/25 11:42:03;;;;;;;8.80;6.90;;;13.60;48.10;;;;;;4961693;28;20969;-66
2021/03/25 11:44:47;;;;;;;12.23;7.37;;;13.60;48.40;;;;;;4948379;28;20232;-66
2021/03/25 11:47:20;;;;;;;9.87;6.97;;;13.70;49.10;;;;;;4944405;28;20736;-66
2021/03/25 11:49:46;;;;;;;10.87;6.97;;;14.10;46.90;;;;;;4963347;28;20238;-66
2021/03/25 11:52:13;;;;;;;10.60;7.00;;;14.00;47.00;;;;;;4961938;28;20228;-66
2021/03/25 11:54:44;;;;;;;13.53;7.27;;;14.40;46.10;;;;;;4961405;28;20256;-66
2021/03/25 11:57:26;;;;;;;10.50;7.17;;;14.40;46.60;;;;;;4958839;28;20213;-66
2021/03/25 12:00:07;;;;;;;12.33;7.60;;;14.40;46.90;;;;;;4960634;28;20278;-66
2021/03/25 12:02:33;;;;;;;10.67;7.00;;;14.50;46.80;;;;;;4959501;28;20711;-66
2021/03/25 12:05:19;;;;;;;12.43;7.50;;;14.80;45.80;;;;;;4961559;28;20581;-66
2021/03/25 12:07:44;;;;;;;12.17;7.57;;;15.00;46.10;;;;;;4954062;28;20965;-66
2021/03/25 12:10:13;;;;;;;12.03;6.90;;;15.40;44.90;;;;;;4959787;28;20226;-66
2021/03/25 12:12:42;;;;;;;6.60;4.53;;;15.70;43.30;;;;;;4958177;28;20302;-66
2021/03/25 12:15:10;;;;;;;7.83;4.70;;;15.90;42.60;;;;;;4958163;28;20274;-66
2021/03/25 12:17:40;;;;;;;8.97;6.37;;;15.60;42.80;;;;;;4957134;28;20290;-66
2021/03/25 12:20:08;;;;;;;13.87;8.03;;;16.20;43.00;;;;;;4957281;28;20252;-66
2021/03/25 12:22:36;;;;;;;12.73;7.00;;;16.30;42.30;;;;;;4959311;28;20718;-65
2021/03/25 12:25:03;;;;;;;12.17;8.20;;;16.50;41.80;;;;;;4957472;28;20246;-65
2021/03/25 12:27:29;;;;;;;11.73;7.20;;;16.80;41.50;;;;;;4952617;28;20196;-66
2021/03/25 12:29:56;;;;;;;11.90;6.97;;;17.20;40.40;;;;;;4967591;28;20190;-65
2021/03/25 12:32:27;;;;;;;10.60;7.10;;;17.70;39.20;;;;;;4967615;28;20499;-66
2021/03/25 12:34:52;;;;;;;12.13;7.27;;;17.80;39.10;;;;;;4943992;28;20637;-65
2021/03/25 12:37:20;;;;;;;11.50;7.40;;;16.90;40.40;;;;;;4964878;28;20696;-66
2021/03/25 12:39:46;;;;;;;12.07;7.73;;;16.90;40.60;;;;;;4965511;28;20232;-65
2021/03/25 12:42:14;;;;;;;11.17;8.37;;;17.40;40.30;;;;;;4961652;28;20218;-66
2021/03/25 12:44:40;;;;;;;12.80;7.60;;;17.90;39.90;;;;;;4959743;28;20283;-66
2021/03/25 12:47:08;;;;;;;11.93;7.93;;;;;;;;;;4956383;28;20305;-66
2021/03/25 12:49:33;;;;;;;11.33;7.67;;;18.20;37.60;;;;;;4945868;28;20679;-66
2021/03/25 12:51:59;;;;;;;13.37;7.87;;;18.30;38.10;;;;;;4960135;28;20224;-66
2021/03/25 12:54:25;;;;;;;13.17;7.60;;;18.10;38.10;;;;;;4945514;28;20212;-66
2021/03/25 12:56:56;;;;;;;11.33;6.57;;;18.80;36.30;;;;;;4969136;28;20227;-66
2021/03/25 12:59:22;;;;;;;11.47;7.27;;;18.90;36.10;;;;;;4967029;28;20267;-65
2021/03/25 13:01:48;;;;;;;12.17;6.70;;;19.30;36.40;;;;;;4968078;28;20593;-65
2021/03/25 13:04:13;;;;;;;12.03;7.60;;;19.70;35.80;;;;;;4967255;28;20368;-65
2021/03/25 13:06:39;;;;;;;14.07;8.27;;;19.20;36.40;;;;;;4964301;28;20219;-65
2021/03/25 13:09:05;;;;;;;13.17;7.67;;;19.50;36.70;;;;;;4968181;28;20193;-66
2021/03/25 13:11:32;;;;;;;12.30;8.43;;;20.30;35.60;;;;;;4967598;28;20220;-66
2021/03/25 13:13:59;;;;;;;11.73;7.07;;;20.30;35.10;;;;;;4966489;28;20693;-67
2021/03/25 13:16:25;;;;;;;11.37;7.17;;;20.50;35.50;;;;;;4949938;28;20364;-67
2021/03/25 13:18:51;;;;;;;9.13;6.07;;;21.30;32.50;;;;;;4968367;28;20234;-65
2021/03/25 13:21:18;;;;;;;13.00;8.93;;;21.00;32.60;;;;;;4966958;28;20655;-65
2021/03/25 13:23:44;;;;;;;14.07;8.33;;;20.00;34.60;;;;;;4948743;28;20354;-65
2021/03/25 13:26:10;;;;;;;12.83;7.80;;;20.60;34.40;;;;;;4946406;28;20241;-65